createdAt,value
2019-05-09T00:00:28.552Z,32.53
2019-05-09T00:03:03.496Z,32.50
2019-05-09T00:05:37.575Z,32.50
2019-05-09T00:08:13.723Z,32.47
2019-05-09T00:10:46.706Z,32.48
2019-05-09T00:13:20.458Z,32.48
2019-05-09T00:15:54.309Z,32.46
2019-05-09T00:18:28.066Z,32.46
2019-05-09T00:21:19.295Z,32.45
2019-05-09T00:23:54.153Z,32.41
2019-05-09T00:26:28.326Z,32.43
2019-05-09T00:29:07.108Z,32.42
2019-05-09T00:32:03.470Z,32.41
2019-05-09T00:35:03.850Z,32.40
2019-05-09T00:37:53.910Z,32.40
2019-05-09T00:40:27.683Z,32.41
2019-05-09T00:43:03.665Z,32.37
2019-05-09T00:46:04.170Z,32.35
2019-05-09T00:48:50.442Z,32.34
2019-05-09T00:51:24.178Z,32.33
2019-05-09T00:53:57.868Z,32.33
2019-05-09T00:56:33.154Z,32.34
2019-05-09T00:59:07.218Z,32.36
2019-05-09T01:01:40.967Z,32.35
2019-05-09T01:04:14.972Z,32.33
2019-05-09T01:06:48.596Z,32.34
2019-05-09T01:09:24.189Z,32.32
2019-05-09T01:11:57.736Z,32.34
2019-05-09T01:14:33.956Z,32.29
2019-05-09T01:17:08.567Z,32.30
2019-05-09T01:19:43.260Z,32.30
2019-05-09T01:22:17.280Z,32.31
2019-05-09T01:24:53.310Z,32.32
2019-05-09T01:27:26.514Z,32.29
2019-05-09T01:30:00.274Z,32.28
2019-05-09T01:32:53.838Z,32.24
2019-05-09T01:35:27.043Z,32.28
2019-05-09T01:38:00.783Z,32.22
2019-05-09T01:40:34.853Z,32.28
2019-05-09T01:43:08.454Z,32.21
2019-05-09T01:45:43.216Z,32.23
2019-05-09T01:48:18.488Z,32.24
2019-05-09T01:50:53.744Z,32.24
2019-05-09T01:53:33.443Z,32.19
2019-05-09T01:56:07.369Z,32.11
2019-05-09T01:58:43.099Z,32.13
2019-05-09T02:01:17.076Z,32.09
2019-05-09T02:03:50.778Z,32.19
2019-05-09T02:06:24.722Z,32.14
2019-05-09T02:08:58.430Z,32.13
2019-05-09T02:11:40.181Z,32.08
2019-05-09T02:14:08.136Z,32.09
2019-05-09T02:16:53.711Z,32.06
2019-05-09T02:19:33.980Z,32.09
2019-05-09T02:22:26.451Z,32.03
2019-05-09T02:25:00.360Z,32.05
2019-05-09T02:27:34.087Z,31.89
2019-05-09T02:30:08.712Z,31.92
2019-05-09T02:32:44.989Z,31.99
2019-05-09T02:35:18.097Z,31.96
2019-05-09T02:37:52.118Z,31.98
2019-05-09T02:40:28.438Z,31.99
2019-05-09T02:43:01.380Z,32.01
2019-05-09T02:45:41.963Z,31.99
2019-05-09T02:48:18.384Z,32.10
2019-05-09T02:50:51.099Z,32.00
2019-05-09T02:53:24.818Z,31.99
2019-05-09T02:55:58.776Z,31.93
2019-05-09T02:58:38.816Z,31.89
2019-05-09T03:01:29.418Z,31.88
2019-05-09T03:04:03.272Z,31.85
2019-05-09T03:06:39.991Z,31.85
2019-05-09T03:09:13.719Z,31.81
2019-05-09T03:11:48.502Z,31.82
2019-05-09T03:14:23.134Z,31.75
2019-05-09T03:16:58.624Z,31.75
2019-05-09T03:19:32.609Z,31.73
2019-05-09T03:22:12.407Z,31.77
2019-05-09T03:24:48.671Z,31.69
2019-05-09T03:27:28.766Z,31.62
2019-05-09T03:30:04.777Z,31.67
2019-05-09T03:32:38.877Z,31.66
2019-05-09T03:35:12.764Z,31.66
2019-05-09T03:37:49.285Z,31.59
2019-05-09T03:40:22.938Z,31.65
2019-05-09T03:42:57.459Z,31.60
2019-05-09T03:45:32.548Z,31.57
2019-05-09T03:48:10.082Z,31.60
2019-05-09T03:50:45.253Z,31.55
2019-05-09T03:53:18.920Z,31.60
2019-05-09T03:55:54.312Z,31.54
2019-05-09T03:58:28.187Z,31.60
2019-05-09T04:01:02.348Z,31.53
2019-05-09T04:03:37.822Z,31.53
2019-05-09T04:06:11.978Z,31.52
2019-05-09T04:08:48.032Z,31.38
2019-05-09T04:11:21.385Z,31.13
2019-05-09T04:13:59.830Z,31.36
2019-05-09T04:16:33.471Z,31.47
2019-05-09T04:19:08.274Z,31.67
2019-05-09T04:21:42.514Z,31.43
2019-05-09T04:24:17.700Z,31.32
2019-05-09T04:27:00.494Z,31.11
2019-05-09T04:29:34.197Z,30.97
2019-05-09T04:32:08.166Z,31.21
2019-05-09T04:34:42.100Z,31.56
2019-05-09T04:37:17.878Z,31.70
2019-05-09T04:39:53.975Z,31.72
2019-05-09T04:42:28.326Z,31.73
2019-05-09T04:45:10.252Z,31.69
2019-05-09T04:47:43.676Z,31.65
2019-05-09T04:50:23.559Z,31.63
2019-05-09T04:52:53.037Z,31.61
2019-05-09T04:55:28.419Z,31.56
2019-05-09T04:58:02.033Z,31.53
2019-05-09T05:01:00.770Z,31.55
2019-05-09T05:03:37.557Z,31.54
2019-05-09T05:06:12.075Z,31.55
2019-05-09T05:08:47.827Z,31.56
2019-05-09T05:11:21.302Z,31.51
2019-05-09T05:13:58.399Z,31.57
2019-05-09T05:16:30.634Z,31.53
2019-05-09T05:19:04.302Z,31.60
2019-05-09T05:21:38.058Z,31.59
2019-05-09T05:24:20.932Z,31.62
2019-05-09T05:26:54.616Z,31.62
2019-05-09T05:29:28.370Z,31.72
2019-05-09T05:32:04.075Z,31.67
2019-05-09T05:34:43.464Z,31.70
2019-05-09T05:37:17.694Z,31.92
2019-05-09T05:39:51.773Z,32.29
2019-05-09T05:42:27.696Z,32.04
2019-05-09T05:45:00.881Z,32.07
2019-05-09T05:47:49.033Z,32.05
2019-05-09T05:50:23.106Z,32.09
2019-05-09T05:52:57.770Z,32.12
2019-05-09T05:55:31.847Z,31.96
2019-05-09T05:58:08.386Z,32.23
2019-05-09T06:00:43.240Z,32.02
2019-05-09T06:03:18.883Z,32.24
2019-05-09T06:05:53.463Z,32.07
2019-05-09T06:08:27.661Z,32.34
2019-05-09T06:11:02.200Z,32.22
2019-05-09T06:13:37.946Z,32.14
2019-05-09T06:16:11.533Z,32.70
2019-05-09T06:18:47.429Z,32.47
2019-05-09T06:21:20.770Z,32.33
2019-05-09T06:23:55.564Z,32.46
2019-05-09T06:26:29.508Z,32.43
2019-05-09T06:29:03.274Z,32.46
2019-05-09T06:31:37.629Z,32.42
2019-05-09T06:34:11.710Z,32.40
2019-05-09T06:36:45.353Z,32.38
2019-05-09T06:39:19.545Z,32.34
2019-05-09T06:41:54.677Z,32.36
2019-05-09T06:44:40.008Z,32.36
2019-05-09T06:47:20.218Z,32.34
2019-05-09T06:49:57.410Z,32.27
2019-05-09T06:52:31.976Z,32.26
2019-05-09T06:55:08.456Z,32.23
2019-05-09T06:57:43.210Z,32.24
2019-05-09T07:00:34.190Z,32.25
2019-05-09T07:03:20.086Z,32.30
2019-05-09T07:06:10.441Z,32.26
2019-05-09T07:09:03.087Z,32.54
2019-05-09T07:11:38.117Z,32.47
2019-05-09T07:14:32.457Z,32.44
2019-05-09T07:17:03.434Z,32.37
2019-05-09T07:19:38.362Z,32.41
2019-05-09T07:22:22.748Z,32.91
2019-05-09T07:25:11.054Z,33.12
2019-05-09T07:27:44.209Z,32.92
2019-05-09T07:30:37.560Z,32.83
2019-05-09T07:33:31.536Z,32.82
2019-05-09T07:36:05.490Z,32.85
2019-05-09T07:38:39.096Z,32.80
2019-05-09T07:41:12.782Z,32.79
2019-05-09T07:43:47.775Z,32.82
2019-05-09T07:46:32.461Z,32.76
2019-05-09T07:49:09.472Z,32.82
2019-05-09T07:51:43.144Z,32.83
2019-05-09T07:54:24.789Z,33.01
2019-05-09T07:56:53.270Z,33.28
2019-05-09T07:59:27.555Z,33.24
2019-05-09T08:02:01.542Z,33.39
2019-05-09T08:04:38.370Z,33.45
2019-05-09T08:07:11.762Z,33.60
2019-05-09T08:09:47.599Z,33.76
2019-05-09T08:12:22.468Z,34.03
2019-05-09T08:15:10.331Z,34.11
2019-05-09T08:17:31.700Z,34.12
2019-05-09T08:20:07.979Z,34.17
2019-05-09T08:22:49.597Z,34.14
2019-05-09T08:25:18.366Z,34.30
2019-05-09T08:27:52.500Z,34.28
2019-05-09T08:30:35.543Z,34.09
2019-05-09T08:33:03.433Z,34.19
2019-05-09T08:35:38.318Z,34.12
2019-05-09T08:38:12.630Z,34.07
2019-05-09T08:40:48.429Z,33.98
2019-05-09T08:43:22.071Z,33.83
2019-05-09T08:45:57.598Z,33.93
2019-05-09T08:48:31.298Z,34.65
2019-05-09T08:51:24.183Z,34.12
2019-05-09T08:53:58.054Z,34.93
2019-05-09T08:56:32.165Z,34.63
2019-05-09T08:59:08.216Z,34.45
2019-05-09T09:02:10.003Z,34.39
2019-05-09T09:04:18.997Z,34.35
2019-05-09T09:06:53.893Z,34.26
2019-05-09T09:09:29.377Z,34.31
2019-05-09T09:12:21.061Z,34.42
2019-05-09T09:14:39.993Z,34.45
2019-05-09T09:17:13.631Z,34.49
2019-05-09T09:19:47.970Z,34.58
2019-05-09T09:22:21.915Z,34.48
2019-05-09T09:24:55.522Z,34.76
2019-05-09T09:27:31.661Z,34.72
2019-05-09T09:30:17.673Z,34.63
2019-05-09T09:32:42.010Z,34.66
2019-05-09T09:35:15.828Z,34.65
2019-05-09T09:37:52.328Z,34.94
2019-05-09T09:40:25.119Z,35.00
2019-05-09T09:42:58.850Z,35.01
2019-05-09T09:45:33.035Z,34.94
2019-05-09T09:48:08.894Z,34.91
2019-05-09T09:50:42.314Z,34.90
2019-05-09T09:53:17.804Z,34.89
2019-05-09T09:55:51.502Z,34.83
2019-05-09T09:58:27.282Z,34.82
2019-05-09T10:01:18.054Z,34.75
2019-05-09T10:04:14.525Z,34.75
2019-05-09T10:06:33.725Z,34.67
2019-05-09T10:09:09.645Z,34.71
2019-05-09T10:11:43.313Z,34.65
2019-05-09T10:14:22.361Z,34.63
2019-05-09T10:17:10.339Z,34.63
2019-05-09T10:20:08.114Z,34.57
2019-05-09T10:22:46.558Z,34.43
2019-05-09T10:25:18.394Z,34.67
2019-05-09T10:27:52.128Z,34.84
2019-05-09T10:30:33.088Z,34.94
2019-05-09T10:33:09.151Z,34.98
2019-05-09T10:35:42.688Z,34.99
2019-05-09T10:38:18.398Z,34.92
2019-05-09T10:40:53.459Z,34.81
2019-05-09T10:43:57.697Z,34.90
2019-05-09T10:47:02.246Z,34.94
2019-05-09T10:49:34.316Z,34.93
2019-05-09T10:52:08.776Z,34.92
2019-05-09T10:54:42.665Z,34.88
2019-05-09T10:57:16.388Z,34.90
2019-05-09T10:59:51.822Z,34.82
2019-05-09T11:02:27.797Z,34.91
2019-05-09T11:05:01.080Z,35.17
2019-05-09T11:07:34.728Z,34.95
2019-05-09T11:10:24.106Z,34.79
2019-05-09T11:12:44.037Z,34.75
2019-05-09T11:15:17.939Z,34.71
2019-05-09T11:17:51.903Z,34.65
2019-05-09T11:20:28.230Z,34.70
2019-05-09T11:23:01.059Z,34.68
2019-05-09T11:25:34.913Z,34.66
2019-05-09T11:28:14.224Z,34.69
2019-05-09T11:30:44.090Z,34.66
2019-05-09T11:33:18.374Z,34.70
2019-05-09T11:35:52.467Z,34.66
2019-05-09T11:38:33.548Z,34.72
2019-05-09T11:41:01.858Z,34.76
2019-05-09T11:43:35.580Z,34.73
2019-05-09T11:46:10.476Z,34.76
2019-05-09T11:48:45.442Z,34.74
2019-05-09T11:51:22.647Z,34.76
2019-05-09T11:53:54.621Z,34.94
2019-05-09T11:56:28.522Z,34.96
2019-05-09T11:59:03.608Z,34.99
2019-05-09T12:01:39.728Z,35.11
2019-05-09T12:04:12.771Z,35.22
2019-05-09T12:06:46.417Z,35.18
2019-05-09T12:09:21.702Z,35.47
2019-05-09T12:11:55.431Z,35.27
2019-05-09T12:14:29.157Z,35.32
2019-05-09T12:17:02.968Z,35.41
2019-05-09T12:19:38.071Z,35.35
2019-05-09T12:22:12.047Z,35.54
2019-05-09T12:24:47.980Z,35.55
2019-05-09T12:27:21.274Z,35.48
2019-05-09T12:29:58.009Z,35.80
2019-05-09T12:32:32.806Z,36.14
2019-05-09T12:35:08.985Z,36.32
2019-05-09T12:37:44.028Z,36.50
2019-05-09T12:40:20.182Z,36.63
2019-05-09T12:42:53.461Z,36.58
2019-05-09T12:45:27.212Z,36.69
2019-05-09T12:48:10.272Z,36.43
2019-05-09T12:50:38.529Z,36.54
2019-05-09T12:53:13.181Z,36.17
2019-05-09T12:55:47.658Z,36.33
2019-05-09T12:58:30.645Z,36.02
2019-05-09T13:01:04.538Z,35.93
2019-05-09T13:03:38.439Z,35.83
2019-05-09T13:06:12.642Z,35.75
2019-05-09T13:08:47.981Z,35.68
2019-05-09T13:11:21.813Z,35.66
2019-05-09T13:13:59.099Z,35.64
2019-05-09T13:16:53.964Z,35.60
2019-05-09T13:19:41.019Z,35.64
2019-05-09T13:22:14.832Z,35.55
2019-05-09T13:24:48.475Z,35.97
2019-05-09T13:27:22.080Z,35.97
2019-05-09T13:29:55.841Z,35.76
2019-05-09T13:32:29.649Z,35.62
2019-05-09T13:35:03.500Z,35.65
2019-05-09T13:37:38.271Z,35.71
2019-05-09T13:40:12.218Z,35.58
2019-05-09T13:42:48.753Z,35.63
2019-05-09T13:45:21.561Z,35.59
2019-05-09T13:47:55.380Z,35.80
2019-05-09T13:50:29.244Z,35.72
2019-05-09T13:53:03.162Z,35.77
2019-05-09T13:55:38.071Z,35.80
2019-05-09T13:58:12.157Z,35.80
2019-05-09T14:00:56.671Z,36.41
2019-05-09T14:03:21.805Z,36.06
2019-05-09T14:05:58.520Z,36.19
2019-05-09T14:08:31.366Z,35.89
2019-05-09T14:11:05.194Z,35.85
2019-05-09T14:13:38.821Z,35.76
2019-05-09T14:16:19.947Z,36.22
2019-05-09T14:18:48.709Z,37.17
2019-05-09T14:21:24.602Z,37.23
2019-05-09T14:24:10.998Z,37.60
2019-05-09T14:26:34.037Z,37.76
2019-05-09T14:29:12.084Z,37.64
2019-05-09T14:31:43.028Z,37.74
2019-05-09T14:34:19.364Z,37.69
2019-05-09T14:36:52.923Z,37.49
2019-05-09T14:39:27.735Z,37.56
2019-05-09T14:42:01.568Z,37.50
2019-05-09T14:44:37.584Z,37.48
2019-05-09T14:47:10.527Z,37.44
2019-05-09T14:49:44.842Z,37.37
2019-05-09T14:52:18.870Z,37.28
2019-05-09T14:54:53.090Z,37.27
2019-05-09T14:57:28.597Z,37.25
2019-05-09T15:00:04.109Z,37.19
2019-05-09T15:02:41.536Z,37.15
2019-05-09T15:05:18.658Z,36.84
2019-05-09T15:07:53.739Z,36.69
2019-05-09T15:10:26.402Z,36.57
2019-05-09T15:13:00.203Z,36.54
2019-05-09T15:15:34.192Z,36.54
2019-05-09T15:18:08.218Z,36.38
2019-05-09T15:20:42.321Z,36.70
2019-05-09T15:23:16.996Z,36.63
2019-05-09T15:25:51.235Z,36.95
2019-05-09T15:28:25.140Z,36.92
2019-05-09T15:30:59.509Z,37.02
2019-05-09T15:33:33.566Z,37.09
2019-05-09T15:36:09.181Z,36.95
2019-05-09T15:38:43.980Z,37.03
2019-05-09T15:41:18.469Z,36.89
2019-05-09T15:43:52.702Z,36.93
2019-05-09T15:46:35.689Z,36.92
2019-05-09T15:49:09.479Z,36.87
2019-05-09T15:51:43.937Z,36.84
2019-05-09T15:54:19.109Z,36.79
2019-05-09T15:56:53.022Z,36.76
2019-05-09T15:59:28.545Z,36.70
2019-05-09T16:02:02.842Z,36.77
2019-05-09T16:04:39.743Z,36.77
2019-05-09T16:07:12.087Z,36.88
2019-05-09T16:09:48.124Z,36.77
2019-05-09T16:12:21.897Z,36.73
2019-05-09T16:14:55.883Z,36.57
2019-05-09T16:17:29.684Z,36.67
2019-05-09T16:20:03.538Z,36.90
2019-05-09T16:22:39.220Z,36.72
2019-05-09T16:25:13.173Z,36.55
2019-05-09T16:27:48.421Z,36.50
2019-05-09T16:30:22.461Z,38.01
2019-05-09T16:32:58.466Z,37.39
2019-05-09T16:35:32.293Z,38.28
2019-05-09T16:38:10.467Z,38.85
2019-05-09T16:40:44.010Z,39.39
2019-05-09T16:43:19.135Z,39.54
2019-05-09T16:45:53.094Z,39.46
2019-05-09T16:48:27.689Z,39.83
2019-05-09T16:51:04.402Z,39.61
2019-05-09T16:53:37.503Z,40.06
2019-05-09T16:56:11.258Z,40.62
2019-05-09T16:58:45.107Z,40.59
2019-05-09T17:01:18.923Z,40.59
2019-05-09T17:03:52.860Z,40.63
2019-05-09T17:06:27.468Z,40.88
2019-05-09T17:09:01.369Z,40.84
2019-05-09T17:11:36.128Z,40.69
2019-05-09T17:14:10.044Z,40.31
2019-05-09T17:16:43.739Z,39.94
2019-05-09T17:19:19.481Z,40.11
2019-05-09T17:21:58.719Z,40.47
2019-05-09T17:24:33.139Z,40.48
2019-05-09T17:27:08.708Z,40.81
2019-05-09T17:29:44.241Z,41.55
2019-05-09T17:32:18.370Z,40.81
2019-05-09T17:34:52.477Z,40.55
2019-05-09T17:37:28.689Z,40.88
2019-05-09T17:40:02.866Z,40.18
2019-05-09T17:42:38.162Z,41.22
2019-05-09T17:45:12.521Z,41.63
2019-05-09T17:47:48.433Z,41.80
2019-05-09T17:50:22.171Z,41.84
2019-05-09T17:52:57.847Z,41.88
2019-05-09T17:55:31.604Z,41.88
2019-05-09T17:58:05.305Z,41.87
2019-05-09T18:00:39.145Z,41.86
2019-05-09T18:03:12.984Z,41.86
2019-05-09T18:05:48.580Z,41.82
2019-05-09T18:08:22.323Z,41.78
2019-05-09T18:10:58.373Z,41.80
2019-05-09T18:13:32.917Z,41.78
2019-05-09T18:16:07.085Z,41.75
2019-05-09T18:18:40.986Z,41.64
2019-05-09T18:21:17.845Z,41.39
2019-05-09T18:23:52.203Z,41.40
2019-05-09T18:26:27.538Z,40.68
2019-05-09T18:29:02.042Z,41.11
2019-05-09T18:32:00.695Z,41.08
2019-05-09T18:34:35.115Z,41.34
2019-05-09T18:37:09.129Z,41.51
2019-05-09T18:39:43.672Z,41.55
2019-05-09T18:42:17.977Z,41.68
2019-05-09T18:44:52.137Z,41.73
2019-05-09T18:47:27.950Z,41.75
2019-05-09T18:50:02.370Z,41.78
2019-05-09T18:52:36.042Z,41.79
2019-05-09T18:55:10.281Z,41.66
2019-05-09T18:57:43.992Z,41.58
2019-05-09T19:00:18.564Z,41.63
2019-05-09T19:02:52.782Z,41.29
2019-05-09T19:05:27.498Z,41.66
2019-05-09T19:08:01.289Z,41.62
2019-05-09T19:10:34.933Z,41.95
2019-05-09T19:13:08.830Z,42.23
2019-05-09T19:16:07.580Z,42.41
2019-05-09T19:19:15.637Z,42.41
2019-05-09T19:21:55.736Z,42.35
2019-05-09T19:24:30.666Z,42.06
2019-05-09T19:27:04.516Z,41.90
2019-05-09T19:29:38.277Z,41.94
2019-05-09T19:32:12.293Z,41.66
2019-05-09T19:34:46.114Z,41.33
2019-05-09T19:37:19.930Z,41.55
2019-05-09T19:39:53.682Z,41.69
2019-05-09T19:42:27.636Z,41.74
2019-05-09T19:45:01.983Z,41.81
2019-05-09T19:47:35.826Z,41.76
2019-05-09T19:50:09.694Z,41.77
2019-05-09T19:52:43.356Z,41.69
2019-05-09T19:55:17.208Z,41.72
2019-05-09T19:57:51.120Z,41.64
2019-05-09T20:00:24.841Z,41.63
2019-05-09T20:02:59.434Z,41.63
2019-05-09T20:05:33.177Z,41.59
2019-05-09T20:08:06.956Z,41.59
2019-05-09T20:10:58.454Z,41.51
2019-05-09T20:13:36.849Z,41.54
2019-05-09T20:16:10.773Z,41.53
2019-05-09T20:18:44.863Z,41.42
2019-05-09T20:21:18.670Z,41.42
2019-05-09T20:23:52.706Z,41.42
2019-05-09T20:26:27.048Z,41.41
2019-05-09T20:29:01.198Z,41.39
2019-05-09T20:31:35.050Z,41.37
2019-05-09T20:34:08.789Z,41.30
2019-05-09T20:36:43.958Z,41.32
2019-05-09T20:39:17.794Z,41.31
2019-05-09T20:41:52.214Z,41.24
2019-05-09T20:44:26.234Z,41.23
2019-05-09T20:47:00.155Z,41.20
2019-05-09T20:49:34.144Z,41.17
2019-05-09T20:52:08.115Z,41.11
2019-05-09T20:54:42.015Z,40.70
2019-05-09T20:57:15.895Z,40.92
2019-05-09T20:59:51.330Z,40.95
2019-05-09T21:02:25.286Z,40.92
2019-05-09T21:04:59.224Z,40.87
2019-05-09T21:07:33.325Z,40.85
2019-05-09T21:10:08.127Z,40.80
2019-05-09T21:12:42.038Z,40.79
2019-05-09T21:15:15.910Z,40.75
2019-05-09T21:17:49.904Z,40.71
2019-05-09T21:20:24.681Z,40.67
2019-05-09T21:22:58.631Z,40.65
2019-05-09T21:25:33.609Z,40.66
2019-05-09T21:28:07.773Z,40.65
2019-05-09T21:30:41.673Z,40.60
2019-05-09T21:33:15.727Z,40.58
2019-05-09T21:35:49.710Z,40.55
2019-05-09T21:38:23.426Z,40.52
2019-05-09T21:40:57.138Z,40.55
2019-05-09T21:43:30.996Z,40.49
2019-05-09T21:46:04.764Z,40.49
2019-05-09T21:48:38.780Z,40.47
2019-05-09T21:51:12.687Z,40.43
2019-05-09T21:53:46.481Z,40.43
2019-05-09T21:56:20.174Z,40.41
2019-05-09T21:58:53.921Z,40.35
2019-05-09T22:01:27.634Z,40.36
2019-05-09T22:18:31.453Z,39.92
2019-05-09T22:21:05.253Z,40.06
2019-05-09T22:23:39.074Z,40.17
2019-05-09T22:26:12.688Z,40.21
2019-05-09T22:28:46.427Z,40.19
2019-05-09T22:31:20.312Z,40.18
2019-05-09T22:33:54.085Z,40.16
2019-05-09T22:36:29.504Z,40.12
2019-05-09T22:39:04.219Z,40.10
2019-05-09T22:41:37.934Z,40.10
2019-05-09T22:44:11.887Z,40.07
2019-05-09T22:46:45.534Z,39.94
2019-05-09T22:49:19.290Z,40.01
2019-05-09T22:51:53.001Z,39.98
2019-05-09T22:54:26.723Z,39.96
2019-05-09T22:57:00.470Z,39.93
2019-05-09T22:59:34.386Z,39.94
2019-05-09T23:02:09.219Z,39.94
2019-05-09T23:04:45.509Z,39.93
2019-05-09T23:07:19.316Z,39.91
2019-05-09T23:09:53.348Z,39.87
2019-05-09T23:12:27.037Z,39.88
2019-05-09T23:15:00.776Z,39.84
2019-05-09T23:17:34.532Z,39.80
2019-05-09T23:20:10.512Z,39.79
2019-05-09T23:22:44.247Z,39.75
2019-05-09T23:25:18.115Z,39.73
2019-05-09T23:27:51.962Z,39.70
2019-05-09T23:30:25.700Z,39.69
2019-05-09T23:32:59.444Z,39.64
2019-05-09T23:35:33.410Z,39.64
2019-05-09T23:38:07.337Z,39.59
2019-05-09T23:40:41.138Z,39.59
2019-05-09T23:43:15.010Z,39.60
2019-05-09T23:45:48.801Z,39.55
2019-05-09T23:48:22.821Z,39.51
2019-05-09T23:50:56.518Z,39.49
2019-05-09T23:53:36.416Z,39.47
2019-05-09T23:56:27.292Z,39.45
2019-05-09T23:59:18.594Z,39.42
